sensor_id;sensor_type;location;lat;lon;timestamp;pressure;altitude;pressure_sealevel;temperature;humidity
71126;BME280;58785;55.566;38.058;2022-09-17T00:01:16;98586.59;;;11.96;84.30
71126;BME280;58785;55.566;38.058;2022-09-17T00:03:42;98593.16;;;11.93;84.60
71126;BME280;58785;55.566;38.058;2022-09-17T00:06:11;98590.50;;;11.93;84.70
71126;BME280;58785;55.566;38.058;2022-09-17T00:08:38;98586.75;;;11.88;84.08
71126;BME280;58785;55.566;38.058;2022-09-17T00:11:07;98594.38;;;11.91;84.09
71126;BME280;58785;55.566;38.058;2022-09-17T00:13:33;98586.13;;;11.86;84.54
71126;BME280;58785;55.566;38.058;2022-09-17T00:15:58;98597.81;;;11.85;84.70
71126;BME280;58785;55.566;38.058;2022-09-17T00:18:24;98599.00;;;11.82;84.09
71126;BME280;58785;55.566;38.058;2022-09-17T00:20:49;98597.56;;;11.79;84.50
71126;BME280;58785;55.566;38.058;2022-09-17T00:23:15;98586.16;;;11.71;83.86
71126;BME280;58785;55.566;38.058;2022-09-17T00:25:43;98591.31;;;11.72;84.09
71126;BME280;58785;55.566;38.058;2022-09-17T00:28:10;98600.31;;;11.71;84.45
71126;BME280;58785;55.566;38.058;2022-09-17T00:30:44;98605.22;;;11.68;84.19
71126;BME280;58785;55.566;38.058;2022-09-17T00:33:11;98596.31;;;11.61;84.63
71126;BME280;58785;55.566;38.058;2022-09-17T00:35:37;98593.84;;;11.59;84.05
71126;BME280;58785;55.566;38.058;2022-09-17T00:38:03;98601.03;;;11.59;84.61
71126;BME280;58785;55.566;38.058;2022-09-17T00:40:29;98596.47;;;11.52;84.10
71126;BME280;58785;55.566;38.058;2022-09-17T00:42:55;98603.47;;;11.54;84.13
71126;BME280;58785;55.566;38.058;2022-09-17T00:45:21;98597.03;;;11.48;84.43
71126;BME280;58785;55.566;38.058;2022-09-17T00:47:56;98603.59;;;11.45;83.82
71126;BME280;58785;55.566;38.058;2022-09-17T00:50:29;98608.66;;;11.40;84.43
71126;BME280;58785;55.566;38.058;2022-09-17T00:53:13;98606.75;;;11.34;84.58
71126;BME280;58785;55.566;38.058;2022-09-17T00:55:56;98606.50;;;11.29;84.00
71126;BME280;58785;55.566;38.058;2022-09-17T00:58:24;98606.88;;;11.26;84.19
71126;BME280;58785;55.566;38.058;2022-09-17T01:00:50;98606.44;;;11.22;84.27
71126;BME280;58785;55.566;38.058;2022-09-17T01:03:16;98614.25;;;11.24;83.61
71126;BME280;58785;55.566;38.058;2022-09-17T01:19:48;98620.06;;;11.13;83.85
71126;BME280;58785;55.566;38.058;2022-09-17T01:23:09;98622.06;;;11.11;83.56
71126;BME280;58785;55.566;38.058;2022-09-17T01:28:23;98629.84;;;11.06;83.86
71126;BME280;58785;55.566;38.058;2022-09-17T01:31:47;98617.88;;;11.02;83.47
71126;BME280;58785;55.566;38.058;2022-09-17T01:39:28;98630.94;;;10.97;83.84
71126;BME280;58785;55.566;38.058;2022-09-17T01:47:38;98634.34;;;10.90;83.64
71126;BME280;58785;55.566;38.058;2022-09-17T01:50:10;98629.97;;;10.83;83.92
71126;BME280;58785;55.566;38.058;2022-09-17T01:52:38;98631.97;;;10.81;83.48
71126;BME280;58785;55.566;38.058;2022-09-17T01:55:09;98634.47;;;10.82;83.93
71126;BME280;58785;55.566;38.058;2022-09-17T01:57:57;98654.13;;;10.81;83.03
71126;BME280;58785;55.566;38.058;2022-09-17T02:00:26;98653.03;;;10.76;83.42
71126;BME280;58785;55.566;38.058;2022-09-17T02:08:14;98669.41;;;10.73;83.60
71126;BME280;58785;55.566;38.058;2022-09-17T02:10:49;98665.63;;;10.67;83.45
71126;BME280;58785;55.566;38.058;2022-09-17T02:13:31;98665.44;;;10.69;83.22
71126;BME280;58785;55.566;38.058;2022-09-17T02:16:04;98660.56;;;10.57;83.56
71126;BME280;58785;55.566;38.058;2022-09-17T02:21:29;98684.00;;;10.62;83.65
71126;BME280;58785;55.566;38.058;2022-09-17T02:24:24;98675.91;;;10.55;83.88
71126;BME280;58785;55.566;38.058;2022-09-17T02:26:59;98682.25;;;10.54;83.26
71126;BME280;58785;55.566;38.058;2022-09-17T02:29:33;98668.19;;;10.46;83.64
71126;BME280;58785;55.566;38.058;2022-09-17T02:31:59;98670.47;;;10.49;83.42
71126;BME280;58785;55.566;38.058;2022-09-17T02:34:26;98665.91;;;10.43;83.84
71126;BME280;58785;55.566;38.058;2022-09-17T02:36:54;98675.53;;;10.44;83.62
71126;BME280;58785;55.566;38.058;2022-09-17T02:39:20;98678.75;;;10.39;83.45
71126;BME280;58785;55.566;38.058;2022-09-17T02:50:21;98697.75;;;10.36;83.27
71126;BME280;58785;55.566;38.058;2022-09-17T02:58:16;98692.50;;;10.28;83.46
71126;BME280;58785;55.566;38.058;2022-09-17T03:00:46;98686.16;;;10.29;83.40
71126;BME280;58785;55.566;38.058;2022-09-17T03:03:22;98689.00;;;10.27;83.61
71126;BME280;58785;55.566;38.058;2022-09-17T03:05:50;98684.25;;;10.23;83.22
71126;BME280;58785;55.566;38.058;2022-09-17T03:08:17;98682.56;;;10.22;83.56
71126;BME280;58785;55.566;38.058;2022-09-17T03:10:45;98693.22;;;10.22;83.31
71126;BME280;58785;55.566;38.058;2022-09-17T03:13:11;98709.50;;;10.27;83.32
71126;BME280;58785;55.566;38.058;2022-09-17T03:15:37;98702.88;;;10.23;83.75
71126;BME280;58785;55.566;38.058;2022-09-17T03:18:02;98685.56;;;10.19;82.65
71126;BME280;58785;55.566;38.058;2022-09-17T03:20:28;98707.84;;;10.26;83.13
71126;BME280;58785;55.566;38.058;2022-09-17T03:22:53;98703.53;;;10.25;82.96
71126;BME280;58785;55.566;38.058;2022-09-17T03:25:19;98698.19;;;10.25;82.86
71126;BME280;58785;55.566;38.058;2022-09-17T03:27:44;98717.44;;;10.35;82.64
71126;BME280;58785;55.566;38.058;2022-09-17T03:30:10;98716.22;;;10.38;82.64
71126;BME280;58785;55.566;38.058;2022-09-17T03:32:36;98714.97;;;10.48;82.33
71126;BME280;58785;55.566;38.058;2022-09-17T03:35:01;98726.66;;;10.62;82.64
71126;BME280;58785;55.566;38.058;2022-09-17T03:37:29;98720.06;;;10.73;82.19
71126;BME280;58785;55.566;38.058;2022-09-17T03:39:55;98716.47;;;10.80;82.37
71126;BME280;58785;55.566;38.058;2022-09-17T03:42:21;98725.03;;;10.90;81.73
71126;BME280;58785;55.566;38.058;2022-09-17T03:44:46;98716.28;;;10.97;81.36
71126;BME280;58785;55.566;38.058;2022-09-17T03:47:12;98728.72;;;11.04;81.08
71126;BME280;58785;55.566;38.058;2022-09-17T03:49:37;98724.56;;;11.02;81.41
71126;BME280;58785;55.566;38.058;2022-09-17T03:52:03;98714.47;;;10.97;80.55
71126;BME280;58785;55.566;38.058;2022-09-17T03:54:28;98729.63;;;10.97;81.49
71126;BME280;58785;55.566;38.058;2022-09-17T03:56:54;98729.19;;;10.93;81.23
71126;BME280;58785;55.566;38.058;2022-09-17T03:59:20;98741.22;;;10.89;81.22
71126;BME280;58785;55.566;38.058;2022-09-17T04:01:45;98732.69;;;10.93;81.70
71126;BME280;58785;55.566;38.058;2022-09-17T04:04:11;98739.66;;;11.09;80.51
71126;BME280;58785;55.566;38.058;2022-09-17T04:06:36;98739.47;;;11.26;81.03
71126;BME280;58785;55.566;38.058;2022-09-17T04:09:02;98743.94;;;11.40;80.18
71126;BME280;58785;55.566;38.058;2022-09-17T04:11:29;98744.94;;;11.54;79.72
71126;BME280;58785;55.566;38.058;2022-09-17T04:13:55;98746.50;;;11.63;79.84
71126;BME280;58785;55.566;38.058;2022-09-17T04:16:20;98737.09;;;11.67;79.11
71126;BME280;58785;55.566;38.058;2022-09-17T04:18:46;98746.91;;;11.81;79.33
71126;BME280;58785;55.566;38.058;2022-09-17T04:21:12;98752.97;;;11.90;79.17
71126;BME280;58785;55.566;38.058;2022-09-17T04:23:37;98746.41;;;11.92;78.86
71126;BME280;58785;55.566;38.058;2022-09-17T04:26:03;98756.25;;;12.06;78.75
71126;BME280;58785;55.566;38.058;2022-09-17T04:28:29;98756.88;;;12.08;78.38
71126;BME280;58785;55.566;38.058;2022-09-17T04:30:54;98764.19;;;12.00;78.87
71126;BME280;58785;55.566;38.058;2022-09-17T04:33:20;98755.94;;;11.80;78.96
71126;BME280;58785;55.566;38.058;2022-09-17T04:35:46;98758.06;;;11.70;79.59
71126;BME280;58785;55.566;38.058;2022-09-17T04:38:12;98767.38;;;11.59;80.00
71126;BME280;58785;55.566;38.058;2022-09-17T04:40:43;98768.78;;;11.55;79.88
71126;BME280;58785;55.566;38.058;2022-09-17T04:43:09;98763.34;;;11.48;79.53
71126;BME280;58785;55.566;38.058;2022-09-17T04:45:35;98761.81;;;11.39;79.26
71126;BME280;58785;55.566;38.058;2022-09-17T04:48:01;98771.47;;;11.40;79.92
71126;BME280;58785;55.566;38.058;2022-09-17T04:50:27;98760.34;;;11.37;79.57
71126;BME280;58785;55.566;38.058;2022-09-17T04:52:53;98769.81;;;11.39;79.35
71126;BME280;58785;55.566;38.058;2022-09-17T04:55:18;98765.03;;;11.35;79.90
71126;BME280;58785;55.566;38.058;2022-09-17T04:57:51;98773.88;;;11.35;80.02
71126;BME280;58785;55.566;38.058;2022-09-17T05:00:18;98770.56;;;11.33;79.59
71126;BME280;58785;55.566;38.058;2022-09-17T05:02:46;98777.28;;;11.44;79.62
71126;BME280;58785;55.566;38.058;2022-09-17T05:05:13;98778.16;;;11.66;79.18
71126;BME280;58785;55.566;38.058;2022-09-17T05:07:40;98782.84;;;11.93;78.71
71126;BME280;58785;55.566;38.058;2022-09-17T05:10:09;98785.13;;;12.18;77.87
71126;BME280;58785;55.566;38.058;2022-09-17T05:12:36;98780.81;;;12.38;77.41
71126;BME280;58785;55.566;38.058;2022-09-17T05:15:02;98781.09;;;12.50;77.19
71126;BME280;58785;55.566;38.058;2022-09-17T05:17:28;98789.88;;;12.65;76.60
71126;BME280;58785;55.566;38.058;2022-09-17T05:19:54;98787.50;;;12.77;76.68
71126;BME280;58785;55.566;38.058;2022-09-17T05:22:20;98800.56;;;12.86;76.92
71126;BME280;58785;55.566;38.058;2022-09-17T05:24:45;98794.06;;;13.02;76.32
71126;BME280;58785;55.566;38.058;2022-09-17T05:27:11;98799.13;;;13.18;75.59
71126;BME280;58785;55.566;38.058;2022-09-17T05:29:37;98798.41;;;13.31;75.53
71126;BME280;58785;55.566;38.058;2022-09-17T05:32:03;98803.25;;;13.49;75.39
71126;BME280;58785;55.566;38.058;2022-09-17T05:34:29;98804.16;;;13.69;74.81
71126;BME280;58785;55.566;38.058;2022-09-17T05:36:54;98805.69;;;13.85;74.62
71126;BME280;58785;55.566;38.058;2022-09-17T05:39:20;98805.91;;;13.97;74.35
71126;BME280;58785;55.566;38.058;2022-09-17T05:41:53;98811.69;;;14.00;73.83
71126;BME280;58785;55.566;38.058;2022-09-17T05:44:19;98825.56;;;14.17;73.61
71126;BME280;58785;55.566;38.058;2022-09-17T05:46:45;98828.28;;;14.24;73.76
71126;BME280;58785;55.566;38.058;2022-09-17T05:49:13;98822.28;;;14.28;73.21
71126;BME280;58785;55.566;38.058;2022-09-17T05:51:40;98833.50;;;14.45;73.19
71126;BME280;58785;55.566;38.058;2022-09-17T05:54:06;98828.16;;;14.58;72.64
71126;BME280;58785;55.566;38.058;2022-09-17T05:56:31;98834.75;;;14.69;72.88
71126;BME280;58785;55.566;38.058;2022-09-17T05:58:57;98836.84;;;14.80;72.01
71126;BME280;58785;55.566;38.058;2022-09-17T06:01:23;98842.41;;;14.99;71.72
71126;BME280;58785;55.566;38.058;2022-09-17T06:03:48;98836.22;;;15.05;71.45
71126;BME280;58785;55.566;38.058;2022-09-17T06:06:14;98850.88;;;15.09;71.50
71126;BME280;58785;55.566;38.058;2022-09-17T06:08:40;98847.78;;;15.12;71.14
71126;BME280;58785;55.566;38.058;2022-09-17T06:11:06;98840.75;;;15.17;71.12
71126;BME280;58785;55.566;38.058;2022-09-17T06:13:33;98838.91;;;15.24;70.98
71126;BME280;58785;55.566;38.058;2022-09-17T06:15:59;98841.75;;;15.36;70.98
71126;BME280;58785;55.566;38.058;2022-09-17T06:18:29;98850.59;;;15.50;70.46
71126;BME280;58785;55.566;38.058;2022-09-17T06:21:00;98855.97;;;15.57;70.06
71126;BME280;58785;55.566;38.058;2022-09-17T06:23:26;98862.78;;;15.59;69.69
71126;BME280;58785;55.566;38.058;2022-09-17T06:25:57;98854.97;;;15.64;69.09
71126;BME280;58785;55.566;38.058;2022-09-17T06:28:25;98847.91;;;15.70;69.39
71126;BME280;58785;55.566;38.058;2022-09-17T06:30:51;98853.22;;;15.83;69.02
71126;BME280;58785;55.566;38.058;2022-09-17T06:33:22;98853.81;;;15.92;68.51
71126;BME280;58785;55.566;38.058;2022-09-17T06:35:48;98852.31;;;16.02;68.34
71126;BME280;58785;55.566;38.058;2022-09-17T06:38:20;98854.63;;;16.05;67.91
71126;BME280;58785;55.566;38.058;2022-09-17T06:40:50;98851.28;;;16.10;68.28
71126;BME280;58785;55.566;38.058;2022-09-17T06:43:16;98861.72;;;16.31;68.31
71126;BME280;58785;55.566;38.058;2022-09-17T06:45:42;98863.47;;;16.51;67.82
71126;BME280;58785;55.566;38.058;2022-09-17T06:48:11;98861.34;;;16.59;67.64
71126;BME280;58785;55.566;38.058;2022-09-17T06:50:36;98868.56;;;16.65;67.09
71126;BME280;58785;55.566;38.058;2022-09-17T06:53:02;98855.72;;;16.67;67.44
71126;BME280;58785;55.566;38.058;2022-09-17T06:55:27;98862.28;;;16.78;67.08
71126;BME280;58785;55.566;38.058;2022-09-17T06:57:57;98863.50;;;16.82;66.65
71126;BME280;58785;55.566;38.058;2022-09-17T07:00:23;98868.06;;;16.82;66.82
71126;BME280;58785;55.566;38.058;2022-09-17T07:02:58;98870.09;;;16.86;66.51
71126;BME280;58785;55.566;38.058;2022-09-17T07:05:26;98871.38;;;16.84;65.97
71126;BME280;58785;55.566;38.058;2022-09-17T07:07:52;98857.28;;;16.82;65.97
71126;BME280;58785;55.566;38.058;2022-09-17T07:10:19;98869.63;;;16.96;65.81
71126;BME280;58785;55.566;38.058;2022-09-17T07:12:44;98861.59;;;16.89;65.68
71126;BME280;58785;55.566;38.058;2022-09-17T07:15:10;98868.38;;;16.92;65.39
71126;BME280;58785;55.566;38.058;2022-09-17T07:17:37;98868.78;;;16.95;65.55
71126;BME280;58785;55.566;38.058;2022-09-17T07:20:05;98872.88;;;17.05;65.12
71126;BME280;58785;55.566;38.058;2022-09-17T07:22:32;98871.69;;;17.19;64.67
71126;BME280;58785;55.566;38.058;2022-09-17T07:24:57;98881.53;;;17.32;64.76
71126;BME280;58785;55.566;38.058;2022-09-17T07:27:23;98869.16;;;17.49;64.60
71126;BME280;58785;55.566;38.058;2022-09-17T07:29:51;98880.00;;;17.61;64.12
71126;BME280;58785;55.566;38.058;2022-09-17T07:32:17;98871.31;;;17.59;63.79
71126;BME280;58785;55.566;38.058;2022-09-17T07:34:45;98880.59;;;17.63;63.13
71126;BME280;58785;55.566;38.058;2022-09-17T07:37:10;98882.47;;;17.62;62.88
71126;BME280;58785;55.566;38.058;2022-09-17T07:39:37;98876.50;;;17.60;62.82
71126;BME280;58785;55.566;38.058;2022-09-17T07:42:03;98867.94;;;17.63;62.50
71126;BME280;58785;55.566;38.058;2022-09-17T07:44:29;98871.16;;;17.78;62.04
71126;BME280;58785;55.566;38.058;2022-09-17T07:46:55;98876.03;;;17.88;61.97
71126;BME280;58785;55.566;38.058;2022-09-17T07:49:20;98879.84;;;17.99;61.47
71126;BME280;58785;55.566;38.058;2022-09-17T07:51:46;98871.28;;;18.02;61.31
71126;BME280;58785;55.566;38.058;2022-09-17T07:54:12;98877.19;;;18.10;61.09
71126;BME280;58785;55.566;38.058;2022-09-17T07:56:37;98887.91;;;18.17;60.58
71126;BME280;58785;55.566;38.058;2022-09-17T07:59:03;98876.59;;;18.08;60.81
71126;BME280;58785;55.566;38.058;2022-09-17T08:01:31;98881.03;;;18.03;60.65
71126;BME280;58785;55.566;38.058;2022-09-17T08:03:58;98873.38;;;18.00;60.45
71126;BME280;58785;55.566;38.058;2022-09-17T08:06:25;98882.22;;;18.07;59.81
71126;BME280;58785;55.566;38.058;2022-09-17T08:08:53;98887.34;;;18.15;59.94
71126;BME280;58785;55.566;38.058;2022-09-17T08:11:21;98877.25;;;18.22;59.01
71126;BME280;58785;55.566;38.058;2022-09-17T08:13:48;98885.81;;;18.19;59.14
71126;BME280;58785;55.566;38.058;2022-09-17T08:16:17;98888.00;;;18.10;58.84
71126;BME280;58785;55.566;38.058;2022-09-17T08:18:44;98886.13;;;18.11;58.58
71126;BME280;58785;55.566;38.058;2022-09-17T08:21:13;98891.13;;;18.26;58.30
71126;BME280;58785;55.566;38.058;2022-09-17T08:23:40;98890.22;;;18.32;57.88
71126;BME280;58785;55.566;38.058;2022-09-17T08:26:08;98888.50;;;18.37;57.40
71126;BME280;58785;55.566;38.058;2022-09-17T08:28:36;98892.13;;;18.43;57.35
71126;BME280;58785;55.566;38.058;2022-09-17T08:31:04;98895.06;;;18.42;56.95
71126;BME280;58785;55.566;38.058;2022-09-17T08:33:32;98896.72;;;18.43;56.53
71126;BME280;58785;55.566;38.058;2022-09-17T08:35:58;98896.03;;;18.47;56.62
71126;BME280;58785;55.566;38.058;2022-09-17T08:38:29;98894.75;;;18.50;56.54
71126;BME280;58785;55.566;38.058;2022-09-17T08:44:06;98892.34;;;18.60;55.51
71126;BME280;58785;55.566;38.058;2022-09-17T08:46:50;98902.78;;;18.56;55.72
71126;BME280;58785;55.566;38.058;2022-09-17T09:00:18;98898.59;;;17.69;55.93
71126;BME280;58785;55.566;38.058;2022-09-17T09:05:38;98907.56;;;17.88;55.35
71126;BME280;58785;55.566;38.058;2022-09-17T09:08:16;98901.13;;;18.07;54.50
71126;BME280;58785;55.566;38.058;2022-09-17T09:10:51;98905.75;;;18.18;54.42
71126;BME280;58785;55.566;38.058;2022-09-17T09:13:21;98913.91;;;18.30;54.16
71126;BME280;58785;55.566;38.058;2022-09-17T09:15:59;98907.38;;;18.37;53.25
71126;BME280;58785;55.566;38.058;2022-09-17T09:18:29;98908.88;;;18.33;53.24
71126;BME280;58785;55.566;38.058;2022-09-17T09:29:04;98920.22;;;17.44;53.41
71126;BME280;58785;55.566;38.058;2022-09-17T09:31:40;98919.69;;;17.29;53.72
71126;BME280;58785;55.566;38.058;2022-09-17T09:34:11;98921.34;;;17.30;53.58
71126;BME280;58785;55.566;38.058;2022-09-17T09:36:38;98913.38;;;17.41;53.86
71126;BME280;58785;55.566;38.058;2022-09-17T09:39:26;98923.41;;;17.52;52.93
71126;BME280;58785;55.566;38.058;2022-09-17T09:45:17;98930.81;;;17.39;52.19
71126;BME280;58785;55.566;38.058;2022-09-17T09:51:28;98938.16;;;17.50;52.46
71126;BME280;58785;55.566;38.058;2022-09-17T09:56:55;98925.16;;;17.90;50.20
71126;BME280;58785;55.566;38.058;2022-09-17T09:59:24;98914.66;;;17.82;50.76
71126;BME280;58785;55.566;38.058;2022-09-17T10:01:50;98927.25;;;17.88;50.77
71126;BME280;58785;55.566;38.058;2022-09-17T10:04:22;98928.69;;;17.91;50.75
71126;BME280;58785;55.566;38.058;2022-09-17T10:07:09;98930.84;;;17.82;50.23
71126;BME280;58785;55.566;38.058;2022-09-17T10:09:37;98937.75;;;17.78;50.91
71126;BME280;58785;55.566;38.058;2022-09-17T10:12:04;98933.22;;;17.72;50.79
71126;BME280;58785;55.566;38.058;2022-09-17T10:14:32;98936.47;;;17.56;50.50
71126;BME280;58785;55.566;38.058;2022-09-17T10:17:22;98945.09;;;17.39;49.79
71126;BME280;58785;55.566;38.058;2022-09-17T10:22:40;98949.69;;;17.14;49.87
71126;BME280;58785;55.566;38.058;2022-09-17T10:25:30;98951.97;;;17.10;49.53
71126;BME280;58785;55.566;38.058;2022-09-17T10:28:03;98949.53;;;17.02;49.45
71126;BME280;58785;55.566;38.058;2022-09-17T10:30:30;98942.97;;;16.91;49.53
71126;BME280;58785;55.566;38.058;2022-09-17T10:33:21;98950.81;;;16.93;49.31
71126;BME280;58785;55.566;38.058;2022-09-17T10:35:57;98950.50;;;17.14;49.33
71126;BME280;58785;55.566;38.058;2022-09-17T10:38:38;98954.56;;;17.23;48.78
71126;BME280;58785;55.566;38.058;2022-09-17T10:41:18;98956.88;;;17.20;48.93
71126;BME280;58785;55.566;38.058;2022-09-17T10:43:47;98959.41;;;17.40;48.74
71126;BME280;58785;55.566;38.058;2022-09-17T10:51:23;98956.56;;;18.03;48.17
71126;BME280;58785;55.566;38.058;2022-09-17T10:54:05;98944.50;;;18.05;48.05
71126;BME280;58785;55.566;38.058;2022-09-17T10:56:34;98934.31;;;17.89;48.63
71126;BME280;58785;55.566;38.058;2022-09-17T11:02:04;98951.09;;;17.66;48.11
71126;BME280;58785;55.566;38.058;2022-09-17T11:04:45;98957.97;;;17.62;48.06
71126;BME280;58785;55.566;38.058;2022-09-17T11:10:14;98972.09;;;18.07;48.04
71126;BME280;58785;55.566;38.058;2022-09-17T11:13:13;98959.44;;;18.26;47.41
71126;BME280;58785;55.566;38.058;2022-09-17T11:21:36;98958.06;;;18.17;47.53
71126;BME280;58785;55.566;38.058;2022-09-17T11:24:48;98961.66;;;18.29;47.64
71126;BME280;58785;55.566;38.058;2022-09-17T11:30:09;98959.56;;;18.13;47.18
71126;BME280;58785;55.566;38.058;2022-09-17T11:38:23;98966.28;;;17.61;47.99
71126;BME280;58785;55.566;38.058;2022-09-17T11:41:01;98956.91;;;17.70;47.92
71126;BME280;58785;55.566;38.058;2022-09-17T11:43:34;98944.78;;;17.79;47.63
71126;BME280;58785;55.566;38.058;2022-09-17T11:46:13;98948.16;;;17.74;47.68
71126;BME280;58785;55.566;38.058;2022-09-17T11:48:51;98961.72;;;17.61;48.01
71126;BME280;58785;55.566;38.058;2022-09-17T11:54:25;98967.03;;;17.93;47.22
71126;BME280;58785;55.566;38.058;2022-09-17T11:57:17;98966.69;;;18.07;47.03
71126;BME280;58785;55.566;38.058;2022-09-17T11:59:51;98964.28;;;17.99;46.86
71126;BME280;58785;55.566;38.058;2022-09-17T12:05:24;98972.56;;;17.79;46.77
71126;BME280;58785;55.566;38.058;2022-09-17T12:15:59;98977.47;;;17.64;47.26
71126;BME280;58785;55.566;38.058;2022-09-17T12:18:45;98990.13;;;17.64;47.42
71126;BME280;58785;55.566;38.058;2022-09-17T12:21:16;98983.06;;;17.63;47.56
71126;BME280;58785;55.566;38.058;2022-09-17T12:23:58;98979.16;;;17.59;47.71
71126;BME280;58785;55.566;38.058;2022-09-17T12:26:33;98988.06;;;17.59;47.87
71126;BME280;58785;55.566;38.058;2022-09-17T12:35:06;98979.38;;;17.82;48.09
71126;BME280;58785;55.566;38.058;2022-09-17T12:45:57;98988.06;;;18.27;47.19
71126;BME280;58785;55.566;38.058;2022-09-17T12:51:09;98988.88;;;18.46;47.32
71126;BME280;58785;55.566;38.058;2022-09-17T12:56:59;98995.25;;;18.15;47.68
71126;BME280;58785;55.566;38.058;2022-09-17T12:59:31;99003.69;;;18.00;48.07
71126;BME280;58785;55.566;38.058;2022-09-17T13:09:55;99011.88;;;17.62;48.44
71126;BME280;58785;55.566;38.058;2022-09-17T13:13:05;99020.03;;;17.56;48.53
71126;BME280;58785;55.566;38.058;2022-09-17T13:21:21;98998.78;;;17.41;48.91
71126;BME280;58785;55.566;38.058;2022-09-17T13:23:49;99005.34;;;17.51;49.03
71126;BME280;58785;55.566;38.058;2022-09-17T13:26:19;98995.94;;;17.61;49.18
71126;BME280;58785;55.566;38.058;2022-09-17T13:28:51;99004.34;;;17.77;48.71
71126;BME280;58785;55.566;38.058;2022-09-17T13:34:01;98985.53;;;17.89;48.66
71126;BME280;58785;55.566;38.058;2022-09-17T13:39:07;98978.63;;;17.75;49.04
71126;BME280;58785;55.566;38.058;2022-09-17T13:41:42;98992.59;;;17.65;49.14
71126;BME280;58785;55.566;38.058;2022-09-17T13:44:09;98991.25;;;17.49;49.59
71126;BME280;58785;55.566;38.058;2022-09-17T13:46:37;98990.97;;;17.33;49.96
71126;BME280;58785;55.566;38.058;2022-09-17T13:49:14;98990.69;;;17.16;50.55
71126;BME280;58785;55.566;38.058;2022-09-17T13:51:42;99009.78;;;17.08;50.81
71126;BME280;58785;55.566;38.058;2022-09-17T13:54:10;99009.88;;;16.94;51.09
71126;BME280;58785;55.566;38.058;2022-09-17T13:59:25;99004.06;;;16.91;51.81
71126;BME280;58785;55.566;38.058;2022-09-17T14:07:30;99000.56;;;16.90;51.87
71126;BME280;58785;55.566;38.058;2022-09-17T14:18:00;98989.38;;;16.93;51.43
71126;BME280;58785;55.566;38.058;2022-09-17T14:20:32;98992.69;;;16.95;51.53
71126;BME280;58785;55.566;38.058;2022-09-17T14:23:00;98993.88;;;17.00;51.23
71126;BME280;58785;55.566;38.058;2022-09-17T14:25:39;98995.53;;;17.01;51.51
71126;BME280;58785;55.566;38.058;2022-09-17T14:28:35;99002.84;;;16.93;51.57
71126;BME280;58785;55.566;38.058;2022-09-17T14:31:15;99000.19;;;16.80;51.77
71126;BME280;58785;55.566;38.058;2022-09-17T14:33:42;99003.34;;;16.71;52.08
71126;BME280;58785;55.566;38.058;2022-09-17T14:36:18;99001.97;;;16.55;52.38
71126;BME280;58785;55.566;38.058;2022-09-17T14:38:47;99003.63;;;16.43;52.99
71126;BME280;58785;55.566;38.058;2022-09-17T14:43:51;99001.00;;;16.23;53.40
71126;BME280;58785;55.566;38.058;2022-09-17T14:46:22;99009.28;;;16.21;53.62
71126;BME280;58785;55.566;38.058;2022-09-17T14:48:48;99017.19;;;16.16;53.57
71126;BME280;58785;55.566;38.058;2022-09-17T14:53:44;99014.72;;;16.08;54.12
71126;BME280;58785;55.566;38.058;2022-09-17T14:56:13;99029.41;;;16.05;53.94
71126;BME280;58785;55.566;38.058;2022-09-17T14:58:44;99028.78;;;16.03;54.41
71126;BME280;58785;55.566;38.058;2022-09-17T15:01:23;99026.50;;;16.00;54.37
71126;BME280;58785;55.566;38.058;2022-09-17T15:03:50;99025.88;;;15.92;54.58
71126;BME280;58785;55.566;38.058;2022-09-17T15:06:34;99028.56;;;15.92;54.45
71126;BME280;58785;55.566;38.058;2022-09-17T15:09:02;99033.75;;;15.93;54.60
71126;BME280;58785;55.566;38.058;2022-09-17T15:11:30;99033.13;;;15.91;54.80
71126;BME280;58785;55.566;38.058;2022-09-17T15:14:04;99025.28;;;15.83;54.97
71126;BME280;58785;55.566;38.058;2022-09-17T15:16:31;99032.13;;;15.86;55.42
71126;BME280;58785;55.566;38.058;2022-09-17T15:19:01;99034.81;;;15.79;55.28
71126;BME280;58785;55.566;38.058;2022-09-17T15:21:38;99033.13;;;15.71;55.59
71126;BME280;58785;55.566;38.058;2022-09-17T15:26:53;99044.69;;;15.52;56.04
71126;BME280;58785;55.566;38.058;2022-09-17T15:29:22;99052.75;;;15.45;56.33
71126;BME280;58785;55.566;38.058;2022-09-17T15:31:51;99045.31;;;15.34;56.21
71126;BME280;58785;55.566;38.058;2022-09-17T15:34:16;99052.28;;;15.22;56.93
71126;BME280;58785;55.566;38.058;2022-09-17T15:37:05;99049.81;;;15.14;57.34
71126;BME280;58785;55.566;38.058;2022-09-17T15:39:38;99050.78;;;15.00;57.19
71126;BME280;58785;55.566;38.058;2022-09-17T15:42:12;99054.91;;;14.95;57.28
71126;BME280;58785;55.566;38.058;2022-09-17T15:44:41;99039.19;;;14.86;57.68
71126;BME280;58785;55.566;38.058;2022-09-17T15:47:33;99039.16;;;14.79;58.18
71126;BME280;58785;55.566;38.058;2022-09-17T15:50:25;99039.72;;;14.68;58.11
71126;BME280;58785;55.566;38.058;2022-09-17T15:52:56;99046.91;;;14.61;58.58
71126;BME280;58785;55.566;38.058;2022-09-17T15:55:35;99049.59;;;14.54;58.90
71126;BME280;58785;55.566;38.058;2022-09-17T15:58:04;99046.84;;;14.48;58.96
71126;BME280;58785;55.566;38.058;2022-09-17T16:00:30;99031.69;;;14.33;59.56
71126;BME280;58785;55.566;38.058;2022-09-17T16:02:56;99050.03;;;14.30;59.87
71126;BME280;58785;55.566;38.058;2022-09-17T16:07:52;99068.78;;;14.23;60.18
71126;BME280;58785;55.566;38.058;2022-09-17T16:10:18;99071.19;;;14.18;60.20
71126;BME280;58785;55.566;38.058;2022-09-17T16:12:44;99069.75;;;14.16;60.70
71126;BME280;58785;55.566;38.058;2022-09-17T16:15:11;99072.63;;;14.14;60.50
71126;BME280;58785;55.566;38.058;2022-09-17T16:22:44;99082.53;;;14.14;60.46
71126;BME280;58785;55.566;38.058;2022-09-17T16:25:12;99093.63;;;14.10;61.16